Flowerfield, Illinois
Current Conditions -  °F | °C
As of 11:51 AM on Thursday 27 Nov 2014 (Local Time) from KORD Reporting Station
Broken Clouds Broken Clouds  
Wind Chill: 14°   Ceiling: 2200
Heat Index: 26°   Visibility: 10mi
Dew Point: 17°   Wind: 16mph
Humidity: 69%   Direction: 300°WNW
Pressure: 30.33"   Gusts: NA
Location:  41.8742°N, 88.0172°W
Report Text: KORD 271751Z 30014KT 10SM BKN022 M03/M08 A3033 RMK AO2 SLP281 60000 T10331083 11028 21044 51008
Loading
Personal Weather Stations






























Interactive Weather Map New forecast layout! Learn more

10-Day Weather Forecast

Advertisements
Track Severe Weather on mobile